Time;durP1;ratioP1;P1;durP2;ratioP2;P2;SDS_P1;SDS_P2;PMS_P1;PMS_P2;Temp;Humidity;BMP_temperature;BMP_pressure;BME280_temperature;BME280_humidity;BME280_pressure;Samples;Min_cycle;Max_cycle;Signal;HPM_P1;HPM_P2
2022/05/09 00:00:14;;;;;;;7.55;1.38;;;15.10;62.10;;;;;;5035192;28;20037;-74
2022/05/09 00:02:40;;;;;;;11.02;2.05;;;15.00;62.10;;;;;;5035120;28;20029;-74
2022/05/09 00:05:07;;;;;;;11.50;2.05;;;15.10;62.30;;;;;;5035188;28;20021;-74
2022/05/09 00:07:33;;;;;;;9.35;1.73;;;15.00;62.00;;;;;;5034911;28;20025;-74
2022/05/09 00:10:00;;;;;;;7.03;1.50;;;14.90;62.50;;;;;;5035378;28;20021;-74
2022/05/09 00:12:26;;;;;;;14.10;2.17;;;14.90;62.60;;;;;;5035139;28;20075;-74
2022/05/09 00:14:52;;;;;;;8.63;1.50;;;14.80;62.40;;;;;;5035288;28;20429;-74
2022/05/09 00:17:18;;;;;;;8.10;1.63;;;14.90;62.80;;;;;;5034904;28;20105;-74
2022/05/09 00:19:43;;;;;;;13.40;2.15;;;15.00;62.40;;;;;;5035001;28;20057;-74
2022/05/09 00:22:09;;;;;;;11.18;1.80;;;15.10;62.20;;;;;;5034831;28;20025;-74
2022/05/09 00:24:35;;;;;;;6.28;1.40;;;15.20;62.10;;;;;;5034795;28;20029;-74
2022/05/09 00:27:00;;;;;;;9.85;1.50;;;15.20;61.80;;;;;;5035076;28;20036;-74
2022/05/09 00:29:26;;;;;;;4.97;1.17;;;15.30;61.60;;;;;;5034751;28;20377;-74
2022/05/09 00:31:57;;;;;;;10.77;1.70;;;15.30;61.80;;;;;;5034577;28;20028;-74
2022/05/09 00:34:24;;;;;;;10.52;1.50;;;15.30;61.40;;;;;;5034941;28;20037;-74
2022/05/09 00:36:52;;;;;;;10.73;1.27;;;15.30;61.60;;;;;;5034792;28;20381;-74
2022/05/09 00:39:18;;;;;;;10.82;2.15;;;15.40;61.60;;;;;;5034465;28;20025;-74
2022/05/09 00:41:45;;;;;;;11.98;2.38;;;15.40;61.40;;;;;;5034421;28;20350;-75
2022/05/09 00:44:12;;;;;;;9.68;2.00;;;15.20;61.50;;;;;;5034350;28;20025;-74
2022/05/09 00:46:39;;;;;;;10.43;1.80;;;15.20;61.90;;;;;;5034048;28;20167;-74
2022/05/09 00:49:26;;;;;;;11.55;1.73;;;15.20;61.80;;;;;;5034634;28;20033;-74
2022/05/09 00:52:20;;;;;;;12.70;2.00;;;15.10;61.80;;;;;;5034495;28;20025;-75
2022/05/09 00:54:54;;;;;;;9.25;1.35;;;15.10;62.00;;;;;;5026038;28;20104;-75
2022/05/09 00:57:40;;;;;;;6.00;1.50;;;14.90;62.40;;;;;;5034251;28;20029;-75
2022/05/09 01:00:13;;;;;;;8.02;1.40;;;15.00;62.40;;;;;;5034435;28;20108;-74
2022/05/09 01:02:40;;;;;;;9.45;1.95;;;15.10;62.40;;;;;;5034151;28;20377;-75
2022/05/09 01:05:07;;;;;;;9.70;1.30;;;15.00;62.30;;;;;;5034012;28;20489;-75
2022/05/09 01:07:33;;;;;;;14.98;2.13;;;15.00;62.60;;;;;;5034246;28;20025;-74
2022/05/09 01:09:59;;;;;;;10.40;2.65;;;15.10;62.60;;;;;;5033918;28;20021;-75
2022/05/09 01:12:29;;;;;;;8.27;1.92;;;15.10;62.40;;;;;;5034086;28;20026;-75
2022/05/09 01:15:01;;;;;;;10.40;2.10;;;15.20;62.20;;;;;;5033892;28;20079;-75
2022/05/09 01:17:27;;;;;;;9.10;1.60;;;15.10;61.80;;;;;;5033808;28;20448;-75
2022/05/09 01:19:55;;;;;;;14.80;2.35;;;15.00;62.40;;;;;;5033814;28;20366;-75
2022/05/09 01:22:22;;;;;;;8.35;1.58;;;15.10;62.60;;;;;;5033912;28;20429;-75
2022/05/09 01:24:48;;;;;;;12.68;2.25;;;14.80;62.40;;;;;;5033480;28;20034;-75
2022/05/09 01:27:14;;;;;;;6.57;1.65;;;14.60;63.40;;;;;;5033968;28;20045;-75
2022/05/09 01:29:47;;;;;;;10.32;1.92;;;14.40;63.70;;;;;;5033650;28;20499;-74
2022/05/09 01:32:16;;;;;;;6.50;1.40;;;14.30;64.40;;;;;;5033691;28;20048;-75
2022/05/09 01:34:46;;;;;;;16.58;2.35;;;14.40;64.40;;;;;;5033633;28;20079;-74
2022/05/09 01:37:13;;;;;;;7.22;1.45;;;14.40;64.80;;;;;;5033759;28;20024;-75
2022/05/09 01:39:39;;;;;;;7.75;1.67;;;14.60;64.00;;;;;;5033890;28;20053;-74
2022/05/09 01:42:09;;;;;;;13.00;1.63;;;14.70;63.70;;;;;;5033471;28;20026;-75
2022/05/09 01:44:37;;;;;;;8.35;2.00;;;14.70;63.20;;;;;;5033247;28;20473;-75
2022/05/09 01:49:48;;;;;;;13.40;2.38;;;14.50;63.50;;;;;;5033697;28;20032;-75
2022/05/09 01:52:16;;;;;;;11.50;2.60;;;14.50;63.80;;;;;;5033286;28;20030;-74
2022/05/09 01:54:43;;;;;;;10.35;2.00;;;14.30;64.20;;;;;;5033462;28;20065;-75
2022/05/09 01:57:12;;;;;;;11.70;2.22;;;14.10;64.60;;;;;;5033051;28;20025;-74
2022/05/09 01:59:40;;;;;;;6.65;1.80;;;14.10;65.10;;;;;;5033415;28;20040;-75
2022/05/09 02:02:12;;;;;;;10.90;1.95;;;14.00;65.30;;;;;;5033244;28;20017;-75
2022/05/09 02:04:40;;;;;;;;;;;14.10;65.00;;;;;;5033823;28;20120;-74
2022/05/09 02:07:09;;;;;;;12.60;1.88;;;14.20;64.90;;;;;;5033104;28;20416;-74
2022/05/09 02:09:46;;;;;;;9.80;1.98;;;14.10;64.60;;;;;;5033128;28;20041;-74
2022/05/09 02:12:13;;;;;;;9.82;2.22;;;14.10;65.00;;;;;;5033200;28;20168;-74
2022/05/09 02:14:39;;;;;;;9.18;1.77;;;14.00;65.10;;;;;;5033242;28;20034;-74
2022/05/09 02:17:06;;;;;;;7.78;2.15;;;14.00;65.20;;;;;;5033254;28;20116;-75
2022/05/09 02:19:32;;;;;;;10.20;2.15;;;14.10;65.10;;;;;;5033038;28;20104;-74
2022/05/09 02:22:00;;;;;;;9.45;2.10;;;14.10;65.00;;;;;;5033000;28;20036;-74
2022/05/09 02:24:27;;;;;;;9.02;1.80;;;14.10;65.10;;;;;;5033246;28;20030;-74
2022/05/09 02:26:53;;;;;;;14.07;2.85;;;14.10;65.00;;;;;;5033287;28;20026;-74
2022/05/09 02:29:18;;;;;;;8.45;1.65;;;14.10;64.90;;;;;;5033056;28;20495;-74
2022/05/09 02:31:44;;;;;;;10.43;2.13;;;14.10;65.20;;;;;;5033280;28;20022;-74
2022/05/09 02:34:10;;;;;;;10.10;2.33;;;14.00;64.90;;;;;;5032740;28;20048;-74
2022/05/09 02:36:35;;;;;;;9.55;2.05;;;14.10;65.20;;;;;;5032837;28;20049;-75
2022/05/09 02:39:01;;;;;;;12.23;2.42;;;14.10;64.90;;;;;;5033140;28;20384;-74
2022/05/09 02:41:26;;;;;;;8.35;2.00;;;14.20;65.00;;;;;;5032746;28;20048;-74
2022/05/09 02:43:52;;;;;;;13.35;2.38;;;14.30;64.70;;;;;;5032810;28;20024;-74
2022/05/09 02:46:18;;;;;;;8.57;1.70;;;14.20;64.50;;;;;;5032422;28;20137;-75
2022/05/09 02:48:44;;;;;;;12.32;2.42;;;14.20;65.00;;;;;;5033082;28;20026;-74
2022/05/09 02:51:11;;;;;;;9.32;1.88;;;14.10;64.70;;;;;;5032691;28;20029;-74
2022/05/09 02:53:37;;;;;;;15.70;2.05;;;14.10;65.00;;;;;;5032947;28;20072;-74
2022/05/09 02:56:04;;;;;;;8.75;2.00;;;14.10;65.10;;;;;;5032990;28;20053;-75
2022/05/09 02:58:31;;;;;;;9.98;2.22;;;14.20;65.00;;;;;;5033001;28;20034;-74
2022/05/09 03:00:56;;;;;;;5.90;1.52;;;14.20;64.70;;;;;;5032660;28;20022;-74
2022/05/09 03:06:06;;;;;;;10.13;2.25;;;14.50;64.50;;;;;;5033008;28;20036;-74
2022/05/09 03:08:32;;;;;;;8.80;1.67;;;14.60;63.80;;;;;;5032876;28;20021;-74
2022/05/09 03:10:58;;;;;;;4.65;1.50;;;14.60;64.10;;;;;;5032881;28;20476;-74
2022/05/09 03:13:24;;;;;;;10.98;2.20;;;14.60;64.10;;;;;;5032615;28;20037;-75
2022/05/09 03:15:51;;;;;;;11.15;2.35;;;14.60;63.80;;;;;;5032396;28;20025;-74
2022/05/09 03:18:21;;;;;;;6.03;2.00;;;14.60;63.70;;;;;;5033007;28;20029;-74
2022/05/09 03:20:47;;;;;;;8.05;1.85;;;14.50;63.80;;;;;;5036305;28;20465;-74
2022/05/09 03:23:12;;;;;;;11.52;2.28;;;14.40;64.50;;;;;;5035933;28;20108;-74
2022/05/09 03:25:39;;;;;;;7.65;1.83;;;14.50;64.20;;;;;;5036107;28;20033;-74
2022/05/09 03:28:08;;;;;;;7.82;1.65;;;14.50;64.10;;;;;;5035833;28;20021;-74
2022/05/09 03:30:36;;;;;;;13.85;2.95;;;14.60;64.40;;;;;;5035868;28;20483;-74
2022/05/09 03:33:01;;;;;;;9.18;2.20;;;14.60;63.80;;;;;;5035770;28;20042;-74
2022/05/09 03:35:27;;;;;;;12.35;2.72;;;14.50;63.80;;;;;;5035548;28;20388;-75
2022/05/09 03:37:53;;;;;;;8.75;2.20;;;14.40;63.70;;;;;;5035690;28;20078;-74
2022/05/09 03:40:20;;;;;;;13.93;2.53;;;14.30;64.00;;;;;;5035836;28;20025;-74
2022/05/09 03:42:47;;;;;;;12.30;2.05;;;14.00;64.30;;;;;;5035625;28;20025;-75
2022/05/09 03:45:12;;;;;;;8.85;2.28;;;14.00;64.80;;;;;;5035595;28;20129;-75
2022/05/09 03:47:38;;;;;;;9.70;2.47;;;13.90;65.10;;;;;;5035307;28;20049;-75
2022/05/09 03:50:06;;;;;;;12.68;2.38;;;13.80;65.40;;;;;;5035666;28;20096;-75
2022/05/09 03:52:31;;;;;;;11.27;2.22;;;13.90;65.40;;;;;;5035342;28;20512;-75
2022/05/09 03:54:57;;;;;;;11.38;2.67;;;14.00;65.30;;;;;;5035531;28;20044;-75
2022/05/09 03:57:23;;;;;;;11.88;2.47;;;13.90;65.00;;;;;;5035621;28;20097;-75
2022/05/09 03:59:49;;;;;;;9.43;2.22;;;13.80;65.20;;;;;;5035237;28;20374;-74
2022/05/09 04:02:15;;;;;;;11.52;3.00;;;13.80;65.50;;;;;;5035264;28;20052;-75
2022/05/09 04:04:41;;;;;;;8.43;1.92;;;13.80;65.40;;;;;;5035202;28;20033;-75
2022/05/09 04:07:06;;;;;;;7.97;1.90;;;13.80;65.40;;;;;;5035332;28;20041;-75
2022/05/09 04:09:32;;;;;;;10.55;2.15;;;13.80;65.70;;;;;;5035446;28;20469;-75
2022/05/09 04:11:58;;;;;;;12.10;2.08;;;13.80;65.80;;;;;;5035217;28;20026;-75
2022/05/09 04:17:08;;;;;;;13.52;2.50;;;13.80;65.30;;;;;;5035133;28;20060;-75
2022/05/09 04:19:35;;;;;;;12.35;2.42;;;13.70;65.30;;;;;;5034963;28;20385;-75
2022/05/09 04:22:02;;;;;;;6.60;1.77;;;13.70;65.50;;;;;;5034647;28;20538;-75
2022/05/09 04:24:32;;;;;;;12.88;2.63;;;13.80;65.70;;;;;;5035072;28;20033;-74
2022/05/09 04:26:58;;;;;;;9.07;2.40;;;13.80;65.50;;;;;;5035050;28;20079;-75
2022/05/09 04:29:25;;;;;;;8.38;1.65;;;13.60;65.90;;;;;;5034394;28;20036;-75
2022/05/09 04:31:50;;;;;;;6.45;1.40;;;13.60;66.50;;;;;;5034733;28;20455;-75
2022/05/09 04:34:16;;;;;;;10.18;2.25;;;13.60;66.40;;;;;;5034547;28;20065;-75
2022/05/09 04:36:42;;;;;;;11.85;2.60;;;13.70;66.10;;;;;;5034567;28;20104;-75
2022/05/09 04:39:08;;;;;;;11.15;2.53;;;13.70;66.00;;;;;;5034531;28;20392;-75
2022/05/09 04:41:33;;;;;;;11.30;2.33;;;13.70;65.90;;;;;;5034470;28;20021;-75
2022/05/09 04:44:00;;;;;;;7.47;2.30;;;13.70;66.00;;;;;;5034638;28;20040;-75
2022/05/09 04:46:26;;;;;;;10.52;2.30;;;13.70;65.90;;;;;;5034448;28;20172;-75
2022/05/09 04:48:52;;;;;;;12.23;3.72;;;13.70;65.80;;;;;;5034306;28;20105;-75
2022/05/09 04:51:18;;;;;;;13.55;2.05;;;13.80;65.90;;;;;;5034233;28;20029;-75
2022/05/09 04:53:44;;;;;;;12.02;2.40;;;13.80;65.90;;;;;;5034161;28;20116;-75
2022/05/09 04:56:10;;;;;;;9.05;2.65;;;13.90;65.40;;;;;;5034128;28;20479;-75
2022/05/09 04:58:35;;;;;;;10.93;2.30;;;13.90;65.60;;;;;;5034427;28;20461;-75
2022/05/09 05:01:01;;;;;;;8.30;2.03;;;13.90;65.50;;;;;;5034217;28;20018;-75
2022/05/09 05:03:27;;;;;;;12.15;2.40;;;13.90;65.30;;;;;;5034419;28;20384;-75
2022/05/09 05:05:53;;;;;;;9.98;2.00;;;14.00;65.30;;;;;;5034161;28;20021;-75
2022/05/09 05:08:19;;;;;;;10.18;2.00;;;14.00;65.40;;;;;;5034036;28;20477;-75
2022/05/09 05:10:45;;;;;;;10.07;2.05;;;14.10;65.40;;;;;;5034214;28;20026;-75
2022/05/09 05:13:12;;;;;;;12.32;2.25;;;14.20;65.40;;;;;;5034052;28;20107;-75
2022/05/09 05:15:38;;;;;;;10.68;2.38;;;14.20;65.30;;;;;;5033873;28;20047;-75
2022/05/09 05:18:04;;;;;;;10.70;3.10;;;14.20;65.10;;;;;;5033991;28;20021;-75
2022/05/09 05:20:31;;;;;;;9.25;2.03;;;14.10;65.00;;;;;;5033892;28;20087;-75
2022/05/09 05:22:56;;;;;;;10.70;2.72;;;14.10;65.40;;;;;;5034031;28;20029;-75
2022/05/09 05:25:27;;;;;;;10.77;2.38;;;14.10;65.20;;;;;;5033447;28;20076;-74
2022/05/09 05:27:54;;;;;;;11.60;3.33;;;14.10;65.40;;;;;;5034007;28;20049;-75
2022/05/09 05:30:22;;;;;;;14.95;3.90;;;14.10;65.60;;;;;;5033576;28;20029;-75
2022/05/09 05:32:48;;;;;;;12.07;2.80;;;14.00;65.90;;;;;;5033718;28;20412;-75
2022/05/09 05:35:18;;;;;;;12.52;2.78;;;13.80;66.30;;;;;;5033588;28;20105;-75
2022/05/09 05:37:44;;;;;;;7.55;2.47;;;13.80;66.70;;;;;;5033351;28;20488;-75
2022/05/09 05:40:10;;;;;;;11.38;2.72;;;13.80;66.60;;;;;;5033348;28;20053;-75
2022/05/09 05:42:38;;;;;;;16.08;2.40;;;13.80;66.80;;;;;;5032688;28;20469;-75
2022/05/09 05:45:05;;;;;;;9.82;2.50;;;13.90;67.00;;;;;;5033706;28;20228;-75
2022/05/09 05:47:30;;;;;;;12.50;2.50;;;13.90;66.80;;;;;;5033134;28;20106;-75
2022/05/09 05:49:57;;;;;;;13.20;2.63;;;13.90;66.40;;;;;;5033367;28;20533;-75
2022/05/09 05:52:23;;;;;;;11.50;3.13;;;13.90;66.80;;;;;;5032842;28;20025;-74
2022/05/09 05:54:49;;;;;;;10.18;2.45;;;13.90;66.80;;;;;;5033551;28;20032;-75
2022/05/09 05:57:21;;;;;;;10.73;2.65;;;13.90;66.80;;;;;;5033298;28;20481;-75
2022/05/09 05:59:56;;;;;;;12.07;3.58;;;14.00;66.80;;;;;;5033237;28;20399;-75
2022/05/09 06:02:23;;;;;;;12.38;3.00;;;14.10;67.00;;;;;;5033364;28;20080;-74
2022/05/09 06:04:49;;;;;;;12.18;2.60;;;14.20;66.50;;;;;;5033156;28;20052;-74
2022/05/09 06:07:18;;;;;;;17.05;2.90;;;14.20;66.30;;;;;;5032943;28;20037;-75
2022/05/09 06:09:45;;;;;;;13.20;2.80;;;14.20;66.20;;;;;;5033050;28;20104;-75
2022/05/09 06:12:13;;;;;;;15.00;3.40;;;14.20;66.30;;;;;;5032809;28;20034;-75
2022/05/09 06:14:39;;;;;;;16.38;3.08;;;14.30;66.20;;;;;;5031488;28;20504;-74
2022/05/09 06:17:06;;;;;;;12.55;3.38;;;14.40;66.00;;;;;;5032789;28;20021;-75
2022/05/09 06:19:32;;;;;;;10.95;2.63;;;14.50;66.10;;;;;;5032945;28;20100;-75
2022/05/09 06:21:58;;;;;;;12.75;3.50;;;14.60;65.80;;;;;;5032533;28;20564;-75
2022/05/09 06:24:24;;;;;;;15.48;2.95;;;14.60;65.40;;;;;;5032316;28;20057;-75
2022/05/09 06:26:50;;;;;;;12.95;2.55;;;14.60;65.70;;;;;;5032796;28;20061;-75
2022/05/09 06:29:15;;;;;;;11.43;2.55;;;14.60;65.90;;;;;;5032844;28;20036;-75
2022/05/09 06:31:41;;;;;;;15.60;2.65;;;14.70;65.60;;;;;;5033044;28;20025;-75
2022/05/09 06:34:11;;;;;;;11.82;2.90;;;14.70;65.80;;;;;;5032978;28;20033;-75
2022/05/09 06:36:37;;;;;;;18.08;3.45;;;14.80;66.30;;;;;;5033042;28;20026;-75
2022/05/09 06:39:04;;;;;;;16.40;3.45;;;14.90;66.40;;;;;;5032978;28;20033;-75
2022/05/09 06:41:30;;;;;;;14.43;3.20;;;15.00;65.70;;;;;;5032761;28;20032;-75
2022/05/09 06:43:56;;;;;;;12.15;3.15;;;15.00;65.40;;;;;;5032757;28;20029;-74
2022/05/09 06:46:21;;;;;;;13.88;3.25;;;15.00;65.80;;;;;;5032317;28;20069;-75
2022/05/09 06:48:47;;;;;;;13.90;3.60;;;15.20;65.40;;;;;;5032822;28;20029;-75
2022/05/09 06:51:13;;;;;;;15.15;3.40;;;15.20;64.70;;;;;;5032649;28;20022;-75
2022/05/09 06:53:38;;;;;;;16.00;3.35;;;15.30;65.40;;;;;;5035024;28;20113;-75
2022/05/09 06:56:04;;;;;;;13.02;2.80;;;15.30;64.10;;;;;;5036510;28;20063;-75
2022/05/09 06:58:31;;;;;;;17.38;3.58;;;15.30;63.80;;;;;;5036580;28;20060;-75
2022/05/09 07:00:57;;;;;;;14.40;2.83;;;15.30;64.50;;;;;;5036271;28;20521;-75
2022/05/09 07:03:23;;;;;;;16.42;3.45;;;15.30;65.50;;;;;;5036255;28;20021;-75
2022/05/09 07:05:51;;;;;;;12.20;2.58;;;15.40;65.60;;;;;;5036280;28;20033;-75
2022/05/09 07:08:18;;;;;;;13.32;3.00;;;15.50;66.20;;;;;;5036234;28;20030;-74
2022/05/09 07:10:44;;;;;;;17.77;2.85;;;15.60;66.70;;;;;;5036196;28;20049;-75
2022/05/09 07:13:10;;;;;;;17.73;3.10;;;15.70;65.00;;;;;;5036055;28;20041;-75
2022/05/09 07:15:36;;;;;;;12.80;3.40;;;15.80;65.10;;;;;;5036264;28;20025;-75
2022/05/09 07:18:03;;;;;;;12.10;3.45;;;15.90;65.40;;;;;;5036258;28;20087;-75
2022/05/09 07:20:33;;;;;;;10.80;3.03;;;15.90;63.60;;;;;;5036274;28;20025;-75
2022/05/09 07:23:09;;;;;;;15.95;3.00;;;16.00;63.70;;;;;;5036113;28;20109;-75
2022/05/09 07:25:35;;;;;;;17.45;3.33;;;16.20;63.80;;;;;;5036032;28;20021;-75
2022/05/09 07:28:01;;;;;;;11.82;2.80;;;16.30;64.80;;;;;;5036266;28;20050;-75
2022/05/09 07:30:28;;;;;;;15.40;3.53;;;16.40;64.40;;;;;;5035697;28;20034;-75
2022/05/09 07:32:54;;;;;;;13.82;3.50;;;16.40;63.40;;;;;;5036015;28;20036;-75
2022/05/09 07:35:20;;;;;;;16.48;3.42;;;16.40;64.10;;;;;;5035807;28;20025;-75
2022/05/09 07:37:47;;;;;;;14.52;3.72;;;16.40;63.70;;;;;;5035801;28;20151;-75
2022/05/09 07:40:15;;;;;;;13.98;3.10;;;16.60;64.20;;;;;;5035950;28;20025;-75
2022/05/09 07:42:42;;;;;;;13.57;3.83;;;16.70;63.10;;;;;;5035731;28;20029;-75
2022/05/09 07:45:10;;;;;;;16.38;3.83;;;16.80;63.40;;;;;;5035340;28;20384;-75
2022/05/09 07:47:36;;;;;;;10.23;3.40;;;16.90;64.10;;;;;;5035162;28;20076;-75
2022/05/09 07:50:03;;;;;;;10.73;3.50;;;16.90;65.30;;;;;;5035666;28;20595;-75
2022/05/09 07:52:30;;;;;;;12.10;4.30;;;17.00;62.80;;;;;;5035211;28;20350;-75
2022/05/09 07:54:55;;;;;;;16.40;3.72;;;17.00;63.90;;;;;;5035164;28;20056;-75
2022/05/09 07:57:21;;;;;;;15.05;3.70;;;17.20;64.70;;;;;;5035475;28;20044;-75
2022/05/09 07:59:47;;;;;;;15.18;3.95;;;17.30;63.10;;;;;;5034939;28;20120;-75
2022/05/09 08:02:13;;;;;;;17.10;4.10;;;17.50;64.10;;;;;;5035635;28;20079;-75
2022/05/09 08:04:39;;;;;;;14.68;3.60;;;17.70;63.60;;;;;;5034733;28;20025;-75
2022/05/09 08:07:05;;;;;;;9.70;2.72;;;17.80;62.60;;;;;;5035352;28;20029;-75
2022/05/09 08:09:31;;;;;;;13.05;3.70;;;18.00;62.10;;;;;;5035202;28;20029;-75
2022/05/09 08:12:00;;;;;;;13.98;3.90;;;18.20;61.00;;;;;;5035078;28;20033;-75
2022/05/09 08:14:27;;;;;;;15.13;4.20;;;18.20;62.70;;;;;;5034991;28;20041;-75
2022/05/09 08:16:54;;;;;;;11.52;3.65;;;18.20;61.60;;;;;;5035336;28;20046;-75
2022/05/09 08:19:19;;;;;;;15.38;3.70;;;18.20;60.90;;;;;;5035039;28;20025;-75
2022/05/09 08:21:50;;;;;;;8.60;3.00;;;18.30;62.20;;;;;;5034823;28;20461;-75
2022/05/09 08:24:17;;;;;;;11.88;3.40;;;18.50;61.30;;;;;;5034629;28;20025;-75
2022/05/09 08:26:42;;;;;;;13.23;3.13;;;18.70;60.60;;;;;;5034788;28;20030;-75
2022/05/09 08:29:09;;;;;;;8.93;3.60;;;18.80;59.80;;;;;;5034524;28;20071;-75
2022/05/09 08:31:35;;;;;;;11.38;3.38;;;19.00;59.80;;;;;;5034740;28;20017;-75
2022/05/09 08:34:00;;;;;;;14.43;3.67;;;19.10;60.10;;;;;;5034580;28;20037;-75
2022/05/09 08:39:11;;;;;;;13.20;3.35;;;19.40;59.50;;;;;;5034389;28;20491;-75
2022/05/09 08:41:54;;;;;;;20.70;4.72;;;19.50;58.90;;;;;;5034687;28;20104;-75
2022/05/09 08:44:57;;;;;;;10.93;3.67;;;19.60;57.80;;;;;;5034487;28;20453;-75
2022/05/09 08:47:32;;;;;;;;;;;19.50;58.00;;;;;;5034139;28;20042;-75
2022/05/09 08:50:17;;;;;;;9.65;3.47;;;19.50;58.20;;;;;;5034422;28;19920;-75
2022/05/09 08:52:53;;;;;;;8.48;3.20;;;19.60;58.50;;;;;;5033982;28;20025;-75
2022/05/09 08:55:25;;;;;;;9.52;3.53;;;19.70;57.00;;;;;;5034593;28;20038;-75
2022/05/09 08:57:57;;;;;;;12.82;3.90;;;19.90;57.40;;;;;;5034396;28;20041;-75
2022/05/09 09:00:30;;;;;;;11.30;3.20;;;20.10;55.80;;;;;;5034185;28;20071;-75
2022/05/09 09:03:01;;;;;;;11.10;2.95;;;20.20;56.70;;;;;;5033904;28;20028;-75
2022/05/09 09:05:33;;;;;;;11.32;3.00;;;20.40;56.10;;;;;;5033970;28;20026;-75
2022/05/09 09:08:27;;;;;;;10.60;2.47;;;20.60;55.00;;;;;;5033754;28;20405;-74
2022/05/09 09:11:18;;;;;;;10.35;2.92;;;20.70;53.50;;;;;;5028360;28;20049;-75
2022/05/09 09:14:20;;;;;;;11.57;3.88;;;20.90;53.20;;;;;;5034043;28;20095;-74
2022/05/09 09:16:57;;;;;;;11.80;2.83;;;20.90;52.30;;;;;;4972007;28;20427;-74
2022/05/09 09:19:38;;;;;;;8.68;2.80;;;21.00;52.20;;;;;;5026011;28;20129;-74
2022/05/09 09:22:41;;;;;;;11.10;3.03;;;21.00;52.50;;;;;;5033706;28;20496;-74
2022/05/09 09:25:36;;;;;;;;;;;21.20;52.50;;;;;;5034101;28;20408;-74
2022/05/09 09:28:04;;;;;;;9.90;2.88;;;21.30;51.80;;;;;;5028855;28;20353;-74
2022/05/09 09:30:31;;;;;;;11.10;2.80;;;21.40;50.50;;;;;;5033651;28;20025;-74
2022/05/09 09:32:59;;;;;;;8.52;3.53;;;21.50;49.40;;;;;;5033436;28;20083;-74
2022/05/09 09:35:55;;;;;;;10.65;3.15;;;21.50;48.70;;;;;;5033743;28;20079;-74
2022/05/09 09:38:40;;;;;;;11.27;3.50;;;21.60;49.50;;;;;;5033654;28;20029;-74
2022/05/09 09:41:20;;;;;;;11.15;3.47;;;21.60;50.40;;;;;;5033543;28;20025;-75
2022/05/09 09:43:48;;;;;;;10.98;2.55;;;21.60;48.70;;;;;;5033539;28;20025;-74
2022/05/09 09:46:13;;;;;;;8.38;2.13;;;21.60;48.70;;;;;;5033119;28;20052;-75
2022/05/09 09:48:39;;;;;;;9.73;2.33;;;21.60;48.40;;;;;;5033364;28;20025;-75
2022/05/09 09:51:17;;;;;;;9.00;1.90;;;21.70;48.00;;;;;;5033686;28;20025;-80
2022/05/09 09:53:51;;;;;;;9.15;1.38;;;21.90;49.70;;;;;;5033502;28;20048;-79
2022/05/09 09:56:20;;;;;;;4.28;1.13;;;22.10;49.30;;;;;;5033413;28;20061;-76
2022/05/09 09:58:47;;;;;;;6.70;2.20;;;22.20;46.70;;;;;;5033435;28;20021;-76
2022/05/09 10:01:21;;;;;;;6.80;2.03;;;22.30;47.70;;;;;;5033233;28;20108;-75
2022/05/09 10:04:04;;;;;;;7.13;1.98;;;22.40;46.60;;;;;;5032909;28;20030;-74
2022/05/09 10:06:30;;;;;;;5.72;1.20;;;22.40;46.70;;;;;;5032699;28;20033;-74
2022/05/09 10:09:02;;;;;;;4.32;1.02;;;22.50;46.20;;;;;;5032969;28;20057;-75
2022/05/09 10:11:29;;;;;;;;;;;22.50;46.30;;;;;;5033572;28;20052;-75
2022/05/09 10:14:01;;;;;;;8.25;1.30;;;22.60;45.30;;;;;;5032786;28;19913;-75
2022/05/09 10:16:41;;;;;;;6.63;1.83;;;22.70;46.80;;;;;;5033451;28;20049;-74
2022/05/09 10:19:12;;;;;;;8.10;2.00;;;22.80;46.20;;;;;;5032607;28;20315;-75
2022/05/09 10:24:49;;;;;;;7.30;2.03;;;22.90;46.40;;;;;;5033090;28;20088;-75
2022/05/09 10:27:21;;;;;;;8.18;1.98;;;22.90;46.20;;;;;;5032718;28;20113;-75
2022/05/09 10:29:49;;;;;;;8.57;1.83;;;23.00;47.30;;;;;;5036763;28;20104;-75
2022/05/09 10:32:19;;;;;;;6.07;2.00;;;23.10;46.00;;;;;;5036620;28;20029;-75
2022/05/09 10:35:04;;;;;;;9.73;2.00;;;23.20;47.20;;;;;;5036303;28;20129;-75
2022/05/09 10:37:40;;;;;;;6.40;1.88;;;23.40;47.60;;;;;;5036561;28;20048;-75
2022/05/09 10:40:21;;;;;;;7.40;1.98;;;23.50;45.90;;;;;;5036345;28;20025;-75
2022/05/09 10:42:53;;;;;;;6.35;2.20;;;23.50;45.50;;;;;;5036433;28;20037;-75
2022/05/09 10:45:24;;;;;;;8.55;1.80;;;23.50;47.40;;;;;;5036716;28;20472;-75
2022/05/09 10:48:19;;;;;;;8.73;2.20;;;23.50;46.70;;;;;;5036471;28;20057;-75
2022/05/09 10:51:18;;;;;;;5.28;1.40;;;23.60;46.50;;;;;;5027418;28;20543;-75
2022/05/09 10:53:54;;;;;;;8.90;3.17;;;23.70;46.60;;;;;;5035943;28;20034;-75
2022/05/09 10:56:45;;;;;;;8.80;2.35;;;23.60;46.70;;;;;;5036461;28;20452;-74
2022/05/09 10:59:31;;;;;;;7.32;1.75;;;23.70;46.60;;;;;;5036416;28;20469;-75
2022/05/09 11:02:15;;;;;;;10.13;2.50;;;23.80;47.40;;;;;;5036587;28;20029;-77
2022/05/09 11:04:41;;;;;;;7.97;2.10;;;23.90;46.20;;;;;;5036322;28;20032;-76
2022/05/09 11:07:41;;;;;;;7.32;1.70;;;23.90;46.30;;;;;;5036398;28;20029;-75
2022/05/09 11:10:27;;;;;;;6.32;1.77;;;23.80;46.40;;;;;;5036476;28;20030;-75
2022/05/09 11:12:56;;;;;;;7.63;1.92;;;23.90;45.60;;;;;;5036170;28;20487;-75
2022/05/09 11:15:41;;;;;;;5.50;1.80;;;23.90;47.40;;;;;;5036042;28;20136;-75
2022/05/09 11:18:22;;;;;;;5.97;1.83;;;23.90;45.90;;;;;;5050612;28;20030;-75
2022/05/09 11:21:08;;;;;;;5.10;1.58;;;24.00;45.00;;;;;;5036043;28;20465;-75
2022/05/09 11:24:04;;;;;;;6.70;2.05;;;24.00;45.10;;;;;;5036375;28;20049;-75
2022/05/09 11:26:51;;;;;;;10.75;2.15;;;23.80;44.50;;;;;;5035937;28;20095;-75
2022/05/09 11:30:04;;;;;;;6.50;1.92;;;23.80;45.40;;;;;;5036085;28;20041;-75
2022/05/09 11:32:41;;;;;;;6.82;1.40;;;24.00;46.40;;;;;;5030275;28;20061;-75
2022/05/09 11:35:28;;;;;;;6.25;1.42;;;24.20;46.60;;;;;;5036009;28;20025;-75
2022/05/09 11:38:24;;;;;;;10.55;1.83;;;24.40;46.20;;;;;;5036047;28;20025;-75
2022/05/09 11:41:14;;;;;;;7.32;1.40;;;24.60;46.30;;;;;;5035281;28;20032;-75
2022/05/09 11:44:09;;;;;;;9.32;1.92;;;24.70;46.30;;;;;;5035815;28;20040;-75
2022/05/09 11:46:42;;;;;;;5.90;1.45;;;24.80;44.60;;;;;;5032255;28;20044;-75
2022/05/09 11:49:29;;;;;;;8.23;1.85;;;24.80;43.60;;;;;;5035603;28;20029;-75
2022/05/09 11:51:57;;;;;;;5.22;1.23;;;25.00;43.90;;;;;;5035806;28;20030;-75
2022/05/09 11:54:48;;;;;;;5.18;1.58;;;25.00;44.60;;;;;;5035184;28;20483;-75
2022/05/09 11:57:28;;;;;;;7.03;1.50;;;25.00;45.00;;;;;;5029767;28;20056;-76
2022/05/09 11:59:57;;;;;;;7.30;1.40;;;25.00;43.80;;;;;;5034812;28;20083;-76
2022/05/09 12:02:44;;;;;;;7.82;1.35;;;25.10;43.20;;;;;;5034858;28;20071;-76
2022/05/09 12:05:25;;;;;;;5.13;1.25;;;25.10;42.90;;;;;;5034557;28;20017;-76
2022/05/09 12:08:02;;;;;;;4.43;1.20;;;25.10;43.10;;;;;;5035191;28;20025;-76
2022/05/09 12:10:28;;;;;;;7.47;1.20;;;25.20;42.70;;;;;;5035056;28;20048;-76
2022/05/09 12:13:05;;;;;;;9.85;1.73;;;25.40;44.00;;;;;;5034759;28;20026;-76
2022/05/09 12:15:34;;;;;;;6.65;1.50;;;25.50;43.50;;;;;;5034677;28;20464;-76
2022/05/09 12:18:05;;;;;;;9.55;1.70;;;25.50;43.20;;;;;;5034852;28;20029;-76
2022/05/09 12:20:31;;;;;;;4.50;1.48;;;25.50;43.50;;;;;;5034731;28;20057;-74
2022/05/09 12:23:12;;;;;;;8.02;2.10;;;25.50;43.40;;;;;;5034767;28;20076;-76
2022/05/09 12:25:41;;;;;;;3.50;1.15;;;25.60;43.20;;;;;;5034779;28;20036;-76
2022/05/09 12:28:16;;;;;;;9.50;2.42;;;25.80;43.20;;;;;;5034825;28;20528;-76
2022/05/09 12:31:04;;;;;;;10.80;2.00;;;25.90;43.30;;;;;;5034914;28;20030;-74
2022/05/09 12:33:45;;;;;;;6.45;1.60;;;25.90;43.00;;;;;;5034757;28;20473;-75
2022/05/09 12:36:27;;;;;;;6.47;2.38;;;25.80;42.60;;;;;;5034247;28;20029;-75
2022/05/09 12:39:07;;;;;;;4.43;1.20;;;25.80;41.70;;;;;;5034666;28;20025;-75
2022/05/09 12:41:54;;;;;;;6.15;1.50;;;25.80;42.80;;;;;;5034572;28;20485;-75
2022/05/09 12:44:23;;;;;;;5.78;1.52;;;25.90;43.70;;;;;;5034732;28;20420;-75
2022/05/09 12:46:56;;;;;;;7.68;2.00;;;26.00;43.00;;;;;;5034099;28;20049;-75
2022/05/09 12:49:26;;;;;;;6.43;1.80;;;26.00;42.50;;;;;;5034304;28;20032;-75
2022/05/09 12:51:55;;;;;;;6.13;1.30;;;26.00;41.80;;;;;;5034351;28;20032;-74
2022/05/09 12:54:24;;;;;;;6.38;2.13;;;26.10;42.40;;;;;;5034255;28;20037;-74
2022/05/09 12:56:58;;;;;;;6.63;1.98;;;26.20;43.40;;;;;;5034092;28;20083;-75
2022/05/09 12:59:43;;;;;;;6.88;1.90;;;26.30;42.90;;;;;;5033944;28;20080;-74
2022/05/09 13:02:08;;;;;;;5.20;2.15;;;26.30;42.50;;;;;;5034043;28;20029;-75
2022/05/09 13:04:39;;;;;;;5.72;1.70;;;26.30;41.80;;;;;;5034439;28;20025;-75
2022/05/09 13:07:07;;;;;;;6.70;1.95;;;26.40;41.90;;;;;;5033991;28;20477;-75
2022/05/09 13:09:54;;;;;;;6.05;1.52;;;26.30;42.20;;;;;;5033907;28;20449;-75
2022/05/09 13:12:36;;;;;;;6.82;1.30;;;26.40;42.50;;;;;;5033176;28;20041;-74
2022/05/09 13:15:07;;;;;;;9.18;1.80;;;26.50;42.60;;;;;;5033311;28;20546;-75